createdAt,value
2018-12-07T00:02:25.136Z,66.00
2018-12-07T00:05:13.113Z,66.10
2018-12-07T00:07:59.637Z,66.10
2018-12-07T00:10:39.989Z,66.20
2018-12-07T00:13:15.602Z,66.20
2018-12-07T00:16:00.075Z,66.90
2018-12-07T00:18:46.243Z,66.50
2018-12-07T00:21:35.642Z,66.50
2018-12-07T00:24:21.530Z,66.40
2018-12-07T00:27:08.993Z,66.50
2018-12-07T00:29:53.537Z,66.50
2018-12-07T00:32:40.257Z,66.60
2018-12-07T00:35:31.111Z,66.60
2018-12-07T00:38:12.944Z,66.70
2018-12-07T00:40:51.783Z,66.60
2018-12-07T00:43:38.185Z,66.60
2018-12-07T00:46:25.427Z,66.60
2018-12-07T00:49:06.547Z,66.50
2018-12-07T00:54:51.335Z,66.60
2018-12-07T00:57:36.037Z,66.60
2018-12-07T01:00:27.399Z,66.70
2018-12-07T01:03:10.923Z,66.70
2018-12-07T01:05:50.845Z,66.90
2018-12-07T01:08:29.283Z,66.80
2018-12-07T01:11:13.561Z,66.90
2018-12-07T01:13:54.181Z,66.90
2018-12-07T01:16:35.100Z,66.90
2018-12-07T01:19:22.177Z,66.90
2018-12-07T01:22:13.103Z,67.00
2018-12-07T01:24:58.371Z,67.00
2018-12-07T01:27:45.910Z,67.00
2018-12-07T01:36:21.453Z,66.90
2018-12-07T01:39:04.610Z,66.90
2018-12-07T01:41:49.840Z,67.00
2018-12-07T01:44:30.199Z,66.90
2018-12-07T01:47:06.718Z,66.90
2018-12-07T01:49:42.202Z,67.10
2018-12-07T01:52:25.991Z,66.80
2018-12-07T01:55:12.284Z,66.80
2018-12-07T01:57:55.106Z,66.70
2018-12-07T02:03:32.968Z,66.70
2018-12-07T02:06:08.195Z,66.70
2018-12-07T02:08:46.490Z,66.70
2018-12-07T02:11:24.904Z,66.10
2018-12-07T02:14:04.499Z,66.70
2018-12-07T02:16:45.349Z,66.60
2018-12-07T02:19:22.422Z,66.70
2018-12-07T02:22:03.786Z,66.30
2018-12-07T02:24:45.672Z,66.50
2018-12-07T02:27:26.588Z,66.60
2018-12-07T02:30:08.236Z,66.70
2018-12-07T02:35:42.551Z,66.70
2018-12-07T02:38:33.046Z,66.70
2018-12-07T02:44:19.060Z,66.80
2018-12-07T02:47:04.180Z,66.80
2018-12-07T02:49:51.104Z,66.90
2018-12-07T02:52:23.266Z,66.80
2018-12-07T02:54:56.565Z,66.90
2018-12-07T03:00:45.106Z,66.90
2018-12-07T03:03:26.776Z,66.90
2018-12-07T03:06:04.882Z,66.80
2018-12-07T03:08:45.376Z,66.90
2018-12-07T03:11:34.044Z,66.80
2018-12-07T03:14:20.901Z,66.80
2018-12-07T03:16:57.659Z,66.90
2018-12-07T03:19:39.480Z,66.90
2018-12-07T03:25:13.978Z,66.70
2018-12-07T03:27:58.115Z,66.90
2018-12-07T03:30:45.417Z,66.80
2018-12-07T03:33:35.298Z,67.00
2018-12-07T03:36:23.331Z,67.00
2018-12-07T03:39:01.419Z,66.90
2018-12-07T03:41:48.645Z,66.90
2018-12-07T03:44:28.939Z,67.80
2018-12-07T03:47:20.624Z,66.90
2018-12-07T03:50:01.490Z,67.00
2018-12-07T03:55:47.323Z,67.10
2018-12-07T03:58:25.007Z,66.10
2018-12-07T04:04:03.503Z,66.10
2018-12-07T04:43:21.429Z,66.50
2018-12-07T04:49:02.089Z,66.70
2018-12-07T04:51:50.206Z,66.80
2018-12-07T04:54:28.962Z,66.80
2018-12-07T04:57:15.129Z,66.90
2018-12-07T05:02:45.281Z,66.90
2018-12-07T05:05:32.608Z,67.10
2018-12-07T05:11:10.425Z,67.10
2018-12-07T05:13:57.092Z,67.10
2018-12-07T05:16:32.721Z,67.30
2018-12-07T05:19:13.732Z,67.30
2018-12-07T05:21:56.615Z,67.40
2018-12-07T05:24:38.792Z,67.50
2018-12-07T05:27:15.967Z,67.50
2018-12-07T05:29:54.246Z,67.60
2018-12-07T05:32:28.256Z,67.60
2018-12-07T05:35:02.520Z,67.60
2018-12-07T05:37:36.406Z,67.80
2018-12-07T05:40:11.769Z,67.80
2018-12-07T05:42:46.010Z,67.80
2018-12-07T05:45:27.345Z,67.80
2018-12-07T05:48:01.556Z,67.80
2018-12-07T05:50:36.536Z,67.90
2018-12-07T05:53:12.544Z,67.90
2018-12-07T05:55:48.328Z,68.70
2018-12-07T05:58:23.000Z,68.00
2018-12-07T06:01:01.659Z,68.20
2018-12-07T06:03:38.181Z,68.30
2018-12-07T06:06:16.311Z,68.40
2018-12-07T06:08:54.161Z,68.30
2018-12-07T06:11:28.110Z,68.50
2018-12-07T06:17:19.713Z,69.30
2018-12-07T06:23:02.753Z,68.80
2018-12-07T06:25:34.835Z,69.10
2018-12-07T06:28:09.740Z,69.20
2018-12-07T06:30:44.342Z,69.40
2018-12-07T06:33:23.513Z,69.80
2018-12-07T06:35:59.385Z,70.50
2018-12-07T06:38:33.648Z,70.70
2018-12-07T06:41:06.879Z,70.70
2018-12-07T06:43:41.411Z,70.60
2018-12-07T06:46:16.333Z,70.50
2018-12-07T06:48:56.596Z,70.60
2018-12-07T06:51:32.689Z,70.70
2018-12-07T06:54:13.872Z,70.60
2018-12-07T06:56:55.036Z,70.50
2018-12-07T06:59:39.733Z,70.60
2018-12-07T07:02:18.608Z,70.80
2018-12-07T07:04:57.394Z,70.90
2018-12-07T07:07:43.911Z,71.10
2018-12-07T07:16:24.823Z,71.90
2018-12-07T07:19:00.406Z,72.10
2018-12-07T07:21:35.523Z,72.20
2018-12-07T07:24:10.666Z,72.20
2018-12-07T07:26:48.440Z,72.30
2018-12-07T07:29:24.093Z,72.40
2018-12-07T07:31:59.062Z,72.50
2018-12-07T07:43:31.306Z,72.50
2018-12-07T07:46:07.747Z,72.50
2018-12-07T07:48:46.006Z,72.60
2018-12-07T07:51:24.974Z,72.70
2018-12-07T07:54:04.404Z,72.70
2018-12-07T07:56:43.654Z,72.90
2018-12-07T07:59:23.739Z,72.90
2018-12-07T08:02:05.126Z,73.00
2018-12-07T08:04:44.310Z,73.00
2018-12-07T08:07:24.757Z,73.20
2018-12-07T08:10:06.923Z,73.30
2018-12-07T08:12:50.106Z,73.60
2018-12-07T08:15:35.598Z,73.70
2018-12-07T08:24:05.439Z,73.40
2018-12-07T08:29:51.143Z,73.40
2018-12-07T08:32:38.707Z,73.40
2018-12-07T08:35:11.101Z,73.40
2018-12-07T08:37:54.616Z,73.50
2018-12-07T08:43:37.901Z,74.00
2018-12-07T08:46:17.050Z,74.30
2018-12-07T08:48:56.464Z,74.70
2018-12-07T08:51:30.654Z,74.90
2018-12-07T08:56:49.869Z,75.30
2018-12-07T08:59:30.413Z,76.40
2018-12-07T09:02:11.763Z,76.00
2018-12-07T09:07:44.823Z,75.50
2018-12-07T09:10:34.531Z,74.80
2018-12-07T09:13:17.381Z,74.50
2018-12-07T09:15:55.987Z,74.50
2018-12-07T09:18:42.991Z,74.50
2018-12-07T09:21:19.391Z,74.60
2018-12-07T09:23:59.053Z,74.60
2018-12-07T09:26:45.495Z,74.70
2018-12-07T09:29:23.753Z,74.80
2018-12-07T09:32:13.887Z,75.10
2018-12-07T09:34:57.809Z,75.10
2018-12-07T09:37:44.525Z,75.30
2018-12-07T09:40:31.335Z,75.40
2018-12-07T09:46:14.443Z,75.30
2018-12-07T09:49:04.546Z,75.20
2018-12-07T09:54:37.149Z,75.60
2018-12-07T09:57:12.464Z,76.70
2018-12-07T09:59:48.615Z,76.40
2018-12-07T10:02:23.666Z,75.80
2018-12-07T10:05:14.573Z,75.60
2018-12-07T10:07:49.235Z,75.50
2018-12-07T10:10:32.064Z,76.00
2018-12-07T10:13:08.162Z,76.40
2018-12-07T10:15:42.618Z,76.00
2018-12-07T10:18:16.980Z,75.70
2018-12-07T10:20:49.278Z,75.70
2018-12-07T10:23:37.476Z,75.70
2018-12-07T10:26:12.665Z,75.50
2018-12-07T10:28:54.087Z,75.40
2018-12-07T10:31:36.630Z,75.50
2018-12-07T10:34:14.086Z,75.70
2018-12-07T10:36:51.499Z,75.50
2018-12-07T10:39:28.026Z,75.70
2018-12-07T10:42:09.356Z,75.80
2018-12-07T10:44:50.555Z,75.90
2018-12-07T10:47:26.803Z,75.90
2018-12-07T10:50:01.868Z,76.10
2018-12-07T10:55:31.582Z,76.30
2018-12-07T10:58:12.806Z,76.30
2018-12-07T11:03:48.009Z,76.50
2018-12-07T11:06:35.202Z,76.50
2018-12-07T11:12:19.295Z,76.70
2018-12-07T11:14:59.025Z,76.60
2018-12-07T11:17:41.955Z,76.50
2018-12-07T11:20:21.970Z,76.40
2018-12-07T11:23:09.300Z,76.70
2018-12-07T11:25:55.379Z,76.70
2018-12-07T11:28:44.152Z,76.70
2018-12-07T11:34:27.064Z,76.70
2018-12-07T11:37:05.955Z,76.60
2018-12-07T11:39:42.617Z,76.60
2018-12-07T11:42:20.172Z,76.70
2018-12-07T11:45:01.110Z,76.80
2018-12-07T11:47:37.844Z,76.90
2018-12-07T11:50:17.744Z,76.90
2018-12-07T11:53:05.428Z,77.20
2018-12-07T11:55:44.873Z,77.20
2018-12-07T11:58:25.448Z,77.20
2018-12-07T12:04:04.741Z,77.50
2018-12-07T12:06:52.336Z,77.40
2018-12-07T12:09:35.372Z,77.30
2018-12-07T12:12:16.420Z,77.30
2018-12-07T12:14:57.022Z,77.40
2018-12-07T12:20:58.312Z,77.30
2018-12-07T12:23:53.394Z,77.30
2018-12-07T12:26:31.139Z,77.30
2018-12-07T12:29:05.756Z,77.30
2018-12-07T12:31:42.198Z,77.40
2018-12-07T12:43:12.003Z,77.40
2018-12-07T12:45:48.888Z,77.40
2018-12-07T12:48:27.660Z,77.50
2018-12-07T12:51:01.892Z,77.50
2018-12-07T12:53:36.157Z,77.60
2018-12-07T12:56:10.164Z,77.60
2018-12-07T13:01:41.084Z,77.70
2018-12-07T13:04:20.746Z,77.60
2018-12-07T13:07:01.472Z,77.80
2018-12-07T13:09:40.730Z,77.90
2018-12-07T13:12:19.629Z,77.80
2018-12-07T13:15:06.306Z,77.80
2018-12-07T13:17:40.972Z,77.80
2018-12-07T13:20:15.988Z,77.70
2018-12-07T13:22:50.828Z,77.70
2018-12-07T13:25:37.590Z,77.80
2018-12-07T13:31:26.402Z,77.70
2018-12-07T13:34:01.162Z,77.80
2018-12-07T13:36:41.562Z,77.80
2018-12-07T13:39:16.246Z,78.00
2018-12-07T13:41:50.891Z,78.10
2018-12-07T13:44:35.636Z,78.90
2018-12-07T13:47:14.219Z,78.10
2018-12-07T13:49:58.851Z,78.00
2018-12-07T13:52:41.529Z,78.10
2018-12-07T13:55:16.254Z,78.20
2018-12-07T13:57:54.692Z,78.20
2018-12-07T14:00:30.583Z,78.10
2018-12-07T14:03:06.674Z,78.10
2018-12-07T14:05:42.778Z,78.20
2018-12-07T14:08:24.606Z,78.20
2018-12-07T14:11:05.670Z,78.20
2018-12-07T14:13:44.491Z,78.20
2018-12-07T14:16:23.931Z,78.30
2018-12-07T14:19:05.010Z,78.30
2018-12-07T14:21:43.994Z,78.40
2018-12-07T14:24:24.531Z,78.50
2018-12-07T14:27:09.850Z,78.40
2018-12-07T14:29:53.640Z,78.40
2018-12-07T14:32:27.845Z,78.40
2018-12-07T14:35:08.199Z,78.40
2018-12-07T14:37:45.969Z,78.50
2018-12-07T14:40:22.202Z,78.50
2018-12-07T14:42:56.949Z,78.60
2018-12-07T14:45:31.147Z,78.60
2018-12-07T14:48:05.817Z,78.70
2018-12-07T14:50:40.022Z,78.70
2018-12-07T14:53:11.934Z,78.60
2018-12-07T14:55:46.325Z,78.60
2018-12-07T14:58:24.210Z,78.60
2018-12-07T15:00:58.784Z,78.60
2018-12-07T15:03:36.879Z,78.40
2018-12-07T15:06:11.200Z,78.20
2018-12-07T15:08:43.753Z,78.20
2018-12-07T15:11:18.420Z,78.30
2018-12-07T15:13:59.183Z,78.30
2018-12-07T15:16:33.821Z,78.30
2018-12-07T15:19:10.513Z,78.30
2018-12-07T15:21:47.529Z,78.20
2018-12-07T15:24:30.591Z,79.10
2018-12-07T15:27:05.789Z,78.00
2018-12-07T15:29:46.157Z,78.00
2018-12-07T15:32:27.516Z,78.00
2018-12-07T15:35:07.107Z,77.90
2018-12-07T15:37:43.775Z,77.80
2018-12-07T15:40:20.026Z,77.80
2018-12-07T15:42:57.683Z,77.70
2018-12-07T15:45:40.251Z,77.80
2018-12-07T15:48:15.070Z,77.70
2018-12-07T15:50:53.460Z,77.50
2018-12-07T15:53:30.938Z,77.60
2018-12-07T15:56:08.234Z,77.50
2018-12-07T15:58:49.196Z,77.40
2018-12-07T16:01:36.223Z,77.40
2018-12-07T16:04:10.817Z,77.30
2018-12-07T16:06:47.276Z,77.20
2018-12-07T16:09:23.349Z,77.10
2018-12-07T16:12:00.223Z,77.20
2018-12-07T16:14:34.381Z,77.10
2018-12-07T16:17:09.662Z,77.10
2018-12-07T16:19:43.879Z,77.30
2018-12-07T16:22:38.906Z,77.20
2018-12-07T16:28:29.915Z,76.80
2018-12-07T16:48:54.389Z,75.90
2018-12-07T16:51:40.394Z,76.10
2018-12-07T17:03:06.782Z,75.90
2018-12-07T17:14:39.510Z,75.90
2018-12-07T17:23:32.623Z,75.70
2018-12-07T17:29:19.425Z,75.90
2018-12-07T17:38:12.116Z,76.00
2018-12-07T17:41:08.091Z,76.30
2018-12-07T20:12:56.583Z,73.90
2018-12-07T20:15:38.635Z,73.50
2018-12-07T20:18:26.549Z,73.40
2018-12-07T20:21:14.056Z,73.20
2018-12-07T20:24:00.013Z,72.90
2018-12-07T20:29:35.919Z,72.00
2018-12-07T20:38:27.766Z,70.00
2018-12-07T20:44:13.286Z,69.50
2018-12-07T20:46:58.369Z,69.20
2018-12-07T20:52:37.201Z,68.50
2018-12-07T20:55:23.906Z,68.40
2018-12-07T21:01:17.692Z,68.00
2018-12-07T21:07:09.123Z,67.70
2018-12-07T21:09:46.894Z,67.70
2018-12-07T21:12:42.749Z,67.60
2018-12-07T21:34:15.539Z,66.20
2018-12-07T21:36:51.482Z,66.40
2018-12-07T22:55:54.267Z,61.70
2018-12-07T23:32:22.025Z,61.70
2018-12-07T23:47:27.863Z,61.30
